Vanzant, Missouri
Current Conditions -  °F | °C
As of 5:53 PM on Sunday 23 Nov 2014 (Local Time) from KUNO Reporting Station
Haze Haze  
Wind Chill: 56°   Ceiling: 200
Heat Index: 56°   Visibility: 4mi
Dew Point: 54°   Wind: 0mph
Humidity: 93%   Direction: NA
Pressure: 29.34"   Gusts: NA
Location:  36.97°N, 92.3°W
Report Text: KUNO 232353Z AUTO 00000KT 4SM BR OVC002 13/12 A2934 RMK AO2 RAB2257E06 SLP929 P0000 60017 T01330122 10133 20128 55004
Loading
Personal Weather Stations






























Interactive Weather Map New forecast layout! Learn more

10-Day Weather Forecast

Advertisements
Track Severe Weather on mobile